Time;durP1;ratioP1;P1;durP2;ratioP2;P2;SDS_P1;SDS_P2;PMS_P1;PMS_P2;Temp;Humidity;BMP_temperature;BMP_pressure;BME280_temperature;BME280_humidity;BME280_pressure;Samples;Min_cycle;Max_cycle;Signal;HPM_P1;HPM_P2
2023/12/04 00:02:14;;;;;;;82.97;39.13;;;-1.00;84.70;;;;;;5013093;28;20611;-71
2023/12/04 00:04:40;;;;;;;81.33;39.50;;;-1.00;84.80;;;;;;5022257;28;20064;-71
2023/12/04 00:07:06;;;;;;;80.23;37.83;;;-1.00;84.80;;;;;;5017264;28;20433;-71
2023/12/04 00:09:31;;;;;;;81.20;37.10;;;-1.00;84.70;;;;;;5029985;28;20140;-71
2023/12/04 00:11:57;;;;;;;90.63;38.50;;;-1.00;84.90;;;;;;5036906;28;20436;-71
2023/12/04 00:14:23;;;;;;;80.90;37.70;;;-1.00;84.90;;;;;;5041903;28;20563;-70
2023/12/04 00:16:48;;;;;;;78.97;37.33;;;-1.00;84.80;;;;;;5041788;28;20045;-70
2023/12/04 00:19:14;;;;;;;80.13;36.67;;;-1.00;84.70;;;;;;5042744;28;20597;-71
2023/12/04 00:21:39;;;;;;;81.73;37.37;;;-1.00;84.80;;;;;;5024282;28;20296;-71
2023/12/04 00:24:05;;;;;;;82.27;39.13;;;-1.00;84.70;;;;;;5023701;28;20057;-72
2023/12/04 00:26:31;;;;;;;83.77;38.80;;;-1.00;84.80;;;;;;5024132;28;20061;-71
2023/12/04 00:28:56;;;;;;;80.70;39.30;;;-1.00;84.90;;;;;;5042218;28;20462;-71
2023/12/04 00:31:22;;;;;;;84.70;39.27;;;-1.00;84.90;;;;;;5041701;28;20400;-71
2023/12/04 00:33:48;;;;;;;84.53;39.40;;;-1.00;84.90;;;;;;5036334;28;20078;-72
2023/12/04 00:36:14;;;;;;;90.47;40.20;;;-1.00;84.90;;;;;;5012954;28;20115;-71
2023/12/04 00:38:39;;;;;;;82.70;39.53;;;-1.00;85.00;;;;;;5015924;28;20150;-71
2023/12/04 00:41:05;;;;;;;92.97;41.07;;;-1.00;85.10;;;;;;5013377;28;20057;-72
2023/12/04 00:43:31;;;;;;;87.13;39.80;;;-1.00;85.10;;;;;;5034406;28;20088;-70
2023/12/04 00:45:57;;;;;;;86.00;39.63;;;-1.00;85.20;;;;;;5030892;28;20080;-71
2023/12/04 00:48:22;;;;;;;95.37;40.37;;;-1.00;85.20;;;;;;5032925;28;20249;-72
2023/12/04 00:50:48;;;;;;;89.07;40.27;;;-1.00;85.30;;;;;;5031419;28;20055;-71
2023/12/04 00:53:14;;;;;;;91.27;41.50;;;-1.00;85.30;;;;;;5033870;28;20045;-70
2023/12/04 00:55:39;;;;;;;91.80;40.47;;;-1.00;85.40;;;;;;5042849;28;20064;-71
2023/12/04 00:58:05;;;;;;;90.27;40.87;;;-1.00;85.40;;;;;;5043570;28;20110;-73
2023/12/04 01:00:31;;;;;;;96.73;41.67;;;-1.00;85.40;;;;;;5035928;28;20057;-70
2023/12/04 01:02:56;;;;;;;96.77;41.63;;;-1.10;85.50;;;;;;5033572;28;20045;-71
2023/12/04 01:05:22;;;;;;;104.53;41.53;;;-1.10;85.40;;;;;;5030478;28;22037;-72
2023/12/04 01:07:48;;;;;;;97.97;40.50;;;-1.00;85.50;;;;;;5031497;28;20046;-70
2023/12/04 01:10:13;;;;;;;95.17;41.23;;;-1.10;85.50;;;;;;5033953;28;20069;-70
2023/12/04 01:12:39;;;;;;;93.87;41.93;;;-1.10;85.60;;;;;;5046467;28;20075;-72
2023/12/04 01:15:05;;;;;;;93.67;41.17;;;-1.10;85.70;;;;;;5048958;28;20507;-71
2023/12/04 01:17:31;;;;;;;100.00;41.07;;;-1.10;85.60;;;;;;5046697;28;20053;-72
2023/12/04 01:19:57;;;;;;;94.27;41.67;;;-1.10;85.70;;;;;;5048131;28;20056;-70
2023/12/04 01:22:23;;;;;;;97.87;42.17;;;-1.10;85.70;;;;;;5046600;28;20275;-72
2023/12/04 01:24:49;;;;;;;92.73;42.00;;;-1.10;85.80;;;;;;5047020;28;20475;-72
2023/12/04 01:27:14;;;;;;;96.40;42.33;;;-1.10;85.80;;;;;;5046077;28;20318;-72
2023/12/04 01:29:40;;;;;;;99.03;42.17;;;-1.00;85.80;;;;;;5047199;28;20107;-71
2023/12/04 01:32:06;;;;;;;94.40;41.93;;;-1.10;85.70;;;;;;5047421;28;20076;-71
2023/12/04 01:34:32;;;;;;;99.03;42.50;;;-1.10;85.70;;;;;;5037094;28;21117;-71
2023/12/04 01:36:57;;;;;;;90.00;41.23;;;-1.00;85.80;;;;;;5032221;28;20067;-71
2023/12/04 01:39:23;;;;;;;92.33;41.30;;;-1.10;85.90;;;;;;5047730;28;20057;-71
2023/12/04 01:41:49;;;;;;;92.43;41.37;;;-1.10;85.90;;;;;;5040059;28;20283;-71
2023/12/04 01:44:15;;;;;;;97.73;41.67;;;-1.00;85.80;;;;;;5048137;28;20051;-70
2023/12/04 01:46:42;;;;;;;91.80;41.63;;;-1.00;85.80;;;;;;5046020;28;20053;-71
2023/12/04 01:49:08;;;;;;;100.60;43.00;;;-1.00;85.80;;;;;;5047530;28;20081;-70
2023/12/04 01:51:34;;;;;;;95.13;42.77;;;-1.00;85.80;;;;;;5046995;28;20085;-70
2023/12/04 01:54:03;;;;;;;86.00;40.90;;;-1.00;85.80;;;;;;5054495;28;20053;-71
2023/12/04 01:56:29;;;;;;;93.50;40.83;;;-1.00;85.80;;;;;;5045777;28;20057;-70
2023/12/04 01:58:55;;;;;;;103.03;41.67;;;-1.00;85.80;;;;;;5044927;28;20075;-71
2023/12/04 02:01:23;;;;;;;87.80;39.57;;;-1.00;85.90;;;;;;5033523;28;20452;-70
2023/12/04 02:03:49;;;;;;;92.53;41.03;;;-1.00;85.80;;;;;;5027682;28;20053;-70
2023/12/04 02:06:16;;;;;;;90.67;41.03;;;-1.00;85.80;;;;;;5036962;28;20060;-70
2023/12/04 02:08:42;;;;;;;102.37;40.77;;;-1.00;85.90;;;;;;5046911;28;20057;-70
2023/12/04 02:11:08;;;;;;;97.47;40.53;;;-1.00;85.80;;;;;;5047407;28;20087;-70
2023/12/04 02:13:34;;;;;;;95.43;40.73;;;-1.00;85.90;;;;;;5046808;28;20114;-70
2023/12/04 02:16:06;;;;;;;93.67;40.33;;;-1.00;85.90;;;;;;5046626;28;20503;-71
2023/12/04 02:18:34;;;;;;;91.13;40.93;;;-1.00;85.90;;;;;;5044896;28;20176;-71
2023/12/04 02:21:01;;;;;;;89.47;39.33;;;-1.00;86.00;;;;;;5045310;28;20056;-70
2023/12/04 02:23:27;;;;;;;98.90;41.37;;;-1.00;85.90;;;;;;5046767;28;20041;-70
2023/12/04 02:26:02;;;;;;;87.70;39.23;;;-1.00;86.00;;;;;;5046926;28;20458;-70
2023/12/04 02:28:36;;;;;;;87.37;40.23;;;-1.00;86.00;;;;;;5045731;28;20064;-70
2023/12/04 02:31:05;;;;;;;88.33;38.47;;;-1.00;86.00;;;;;;5060118;27;20044;-70
2023/12/04 02:33:32;;;;;;;87.10;39.60;;;-1.00;86.00;;;;;;5032104;28;20049;-70
2023/12/04 02:36:00;;;;;;;91.60;40.13;;;-1.00;85.90;;;;;;5026119;28;20052;-72
2023/12/04 02:38:26;;;;;;;91.40;40.90;;;-1.00;86.00;;;;;;5026357;28;20045;-71
2023/12/04 02:40:52;;;;;;;86.27;37.53;;;-1.00;86.00;;;;;;5026514;28;20484;-70
2023/12/04 02:43:17;;;;;;;85.87;39.47;;;-1.00;86.00;;;;;;5026302;28;20061;-71
2023/12/04 02:45:43;;;;;;;87.53;40.47;;;-1.00;86.00;;;;;;5024269;28;20049;-70
2023/12/04 02:48:10;;;;;;;88.93;39.03;;;-1.00;86.00;;;;;;5026909;28;20054;-70
2023/12/04 02:50:35;;;;;;;88.47;40.37;;;-0.90;86.00;;;;;;5026341;28;20556;-70
2023/12/04 02:53:01;;;;;;;79.70;37.97;;;-0.90;86.10;;;;;;5027080;28;20076;-70
2023/12/04 02:55:28;;;;;;;89.83;39.30;;;-0.90;86.10;;;;;;5025909;28;20057;-70
2023/12/04 02:57:53;;;;;;;85.33;39.37;;;-0.90;86.00;;;;;;5025024;28;20439;-70
2023/12/04 03:00:19;;;;;;;82.03;37.97;;;-0.90;86.10;;;;;;5028348;28;20060;-71
2023/12/04 03:02:45;;;;;;;79.27;38.17;;;-0.90;86.00;;;;;;5026481;28;20138;-70
2023/12/04 03:05:10;;;;;;;86.13;39.33;;;-0.90;86.00;;;;;;5027027;28;20054;-71
2023/12/04 03:07:36;;;;;;;72.40;37.67;;;-0.90;86.00;;;;;;5044941;28;20055;-71
2023/12/04 03:10:02;;;;;;;81.13;38.47;;;-0.90;86.10;;;;;;5045750;28;20118;-70
2023/12/04 03:12:28;;;;;;;78.47;37.70;;;-0.90;85.90;;;;;;5045541;28;20048;-71
2023/12/04 03:14:53;;;;;;;77.37;36.77;;;-0.90;85.90;;;;;;5045557;28;20041;-70
2023/12/04 03:17:19;;;;;;;77.53;38.97;;;-0.80;85.90;;;;;;5045153;28;20052;-70
2023/12/04 03:19:45;;;;;;;79.83;38.17;;;-0.80;85.90;;;;;;5045447;28;20053;-70
2023/12/04 03:22:11;;;;;;;80.50;38.10;;;-0.80;85.90;;;;;;5044979;28;20049;-70
2023/12/04 03:24:37;;;;;;;76.53;36.43;;;-0.80;85.80;;;;;;5044786;28;20052;-71
2023/12/04 03:27:03;;;;;;;78.83;37.70;;;-0.80;85.70;;;;;;5045878;28;20148;-70
2023/12/04 03:29:28;;;;;;;77.47;36.77;;;-0.80;85.70;;;;;;5052328;28;20059;-71
2023/12/04 03:31:54;;;;;;;77.93;36.57;;;-0.80;85.60;;;;;;5048834;28;20043;-73
2023/12/04 03:34:20;;;;;;;81.87;37.70;;;-0.80;85.50;;;;;;5039336;28;20044;-70
2023/12/04 03:36:45;;;;;;;77.47;35.67;;;-0.70;85.50;;;;;;5035376;28;20400;-69
2023/12/04 03:39:11;;;;;;;73.40;36.43;;;-0.80;85.50;;;;;;5036788;28;20049;-70
2023/12/04 03:41:37;;;;;;;80.50;37.63;;;-0.70;85.40;;;;;;5028840;28;20270;-70
2023/12/04 03:44:02;;;;;;;77.93;37.03;;;-0.70;85.50;;;;;;5051701;28;20476;-70
2023/12/04 03:46:28;;;;;;;77.43;36.27;;;-0.70;85.50;;;;;;5046129;28;20471;-71
2023/12/04 03:48:55;;;;;;;77.80;36.93;;;-0.70;85.40;;;;;;5051208;28;20049;-69
2023/12/04 03:51:21;;;;;;;76.27;35.67;;;-0.70;85.40;;;;;;5044398;28;20315;-67
2023/12/04 03:53:46;;;;;;;80.63;36.87;;;-0.70;85.40;;;;;;5034479;28;20168;-72
2023/12/04 03:56:12;;;;;;;77.00;36.83;;;-0.70;85.40;;;;;;5032523;28;20125;-71
2023/12/04 03:58:38;;;;;;;81.23;36.50;;;-0.70;85.40;;;;;;5023900;28;20390;-70
2023/12/04 04:01:04;;;;;;;73.83;36.07;;;-0.70;85.40;;;;;;5038189;28;20657;-72
2023/12/04 04:03:30;;;;;;;76.13;35.87;;;-0.70;85.50;;;;;;5038266;28;20060;-71
2023/12/04 04:05:55;;;;;;;75.63;36.97;;;-0.70;85.40;;;;;;5043990;28;20049;-69
2023/12/04 04:08:21;;;;;;;74.93;35.57;;;-0.70;85.50;;;;;;5044189;28;20064;-70
2023/12/04 04:10:47;;;;;;;71.93;36.27;;;-0.70;85.40;;;;;;5044296;28;20041;-70
2023/12/04 04:13:12;;;;;;;76.33;37.93;;;-0.70;85.40;;;;;;5045566;28;20459;-70
2023/12/04 04:15:38;;;;;;;73.80;36.07;;;-0.70;85.50;;;;;;5044395;28;20049;-69
2023/12/04 04:18:04;;;;;;;69.53;35.83;;;-0.70;85.40;;;;;;5044417;28;20041;-71
2023/12/04 04:20:29;;;;;;;70.67;35.70;;;-0.70;85.40;;;;;;5043939;28;20073;-72
2023/12/04 04:22:55;;;;;;;71.00;34.90;;;-0.70;85.50;;;;;;5043784;28;20080;-71
2023/12/04 04:25:23;;;;;;;73.57;36.10;;;-0.70;85.50;;;;;;5044343;28;20057;-68
2023/12/04 04:27:48;;;;;;;75.83;35.37;;;-0.70;85.40;;;;;;5045362;28;20037;-73
2023/12/04 04:30:14;;;;;;;75.63;35.03;;;-0.70;85.40;;;;;;5043983;28;20057;-70
2023/12/04 04:32:40;;;;;;;67.00;34.30;;;-0.70;85.40;;;;;;5042188;28;20053;-72
2023/12/04 04:35:06;;;;;;;71.73;35.50;;;-0.70;85.40;;;;;;5033579;28;20088;-71
2023/12/04 04:37:31;;;;;;;69.57;35.33;;;-0.70;85.40;;;;;;5044986;28;20049;-70
2023/12/04 04:39:57;;;;;;;70.73;34.47;;;-0.70;85.40;;;;;;5045513;28;20147;-71
2023/12/04 04:42:23;;;;;;;63.80;32.00;;;-0.70;85.40;;;;;;5035620;28;20089;-70
2023/12/04 04:44:48;;;;;;;72.40;34.13;;;-0.70;85.40;;;;;;5035803;28;20453;-71
2023/12/04 04:47:14;;;;;;;71.97;34.47;;;-0.70;85.30;;;;;;5038208;28;20549;-71
2023/12/04 04:49:41;;;;;;;74.43;34.03;;;-0.70;85.30;;;;;;5038285;28;22736;-72
2023/12/04 04:52:07;;;;;;;73.37;33.67;;;-0.70;85.40;;;;;;5028655;28;20048;-71
2023/12/04 04:54:33;;;;;;;74.43;35.33;;;-0.70;85.30;;;;;;5026628;28;20061;-70
2023/12/04 04:56:59;;;;;;;68.17;34.43;;;-0.70;85.40;;;;;;5028868;28;20140;-71
2023/12/04 04:59:24;;;;;;;70.33;34.90;;;-0.70;85.40;;;;;;5028437;28;20059;-70
2023/12/04 05:01:50;;;;;;;70.73;34.40;;;-0.70;85.30;;;;;;5030676;28;20057;-70
2023/12/04 05:04:16;;;;;;;74.30;33.63;;;-0.70;85.30;;;;;;5029097;28;20127;-70
2023/12/04 05:06:42;;;;;;;70.33;33.13;;;-0.70;85.30;;;;;;5041931;28;20142;-71
2023/12/04 05:09:07;;;;;;;71.97;33.93;;;-0.60;85.30;;;;;;5048730;28;20071;-70
2023/12/04 05:11:33;;;;;;;68.93;34.00;;;-0.70;85.20;;;;;;5047955;28;20063;-69
2023/12/04 05:13:59;;;;;;;69.27;32.40;;;-0.70;85.20;;;;;;5049050;28;20076;-71
2023/12/04 05:16:24;;;;;;;71.23;32.77;;;-0.60;85.20;;;;;;5047822;28;20128;-69
2023/12/04 05:18:50;;;;;;;72.40;32.87;;;-0.60;85.10;;;;;;5048715;28;20076;-70
2023/12/04 05:21:16;;;;;;;67.13;31.33;;;-0.60;85.10;;;;;;5046327;28;20052;-70
2023/12/04 05:23:41;;;;;;;67.23;32.53;;;-0.60;85.10;;;;;;5047184;28;20052;-69
2023/12/04 05:26:07;;;;;;;66.83;30.90;;;-0.60;85.10;;;;;;5030483;28;20045;-70
2023/12/04 05:28:34;;;;;;;83.87;73.60;;;-0.60;85.10;;;;;;5034545;28;20496;-70
2023/12/04 05:31:00;;;;;;;60.67;31.77;;;-0.60;85.10;;;;;;5031628;28;20060;-69
2023/12/04 05:33:25;;;;;;;62.83;32.10;;;-0.60;85.00;;;;;;5052761;28;20044;-72
2023/12/04 05:35:52;;;;;;;66.20;31.00;;;-0.60;85.00;;;;;;5034814;28;20041;-73
2023/12/04 05:38:17;;;;;;;63.13;31.60;;;-0.60;84.90;;;;;;5027860;28;20045;-70
2023/12/04 05:40:43;;;;;;;58.50;30.47;;;-0.60;85.00;;;;;;5027836;28;20385;-70
2023/12/04 05:43:09;;;;;;;56.83;29.37;;;-0.60;84.90;;;;;;5030923;28;20055;-72
2023/12/04 05:45:35;;;;;;;57.90;30.00;;;-0.60;84.90;;;;;;5011623;28;20054;-70
2023/12/04 05:48:01;;;;;;;60.47;29.90;;;-0.60;84.90;;;;;;5044062;28;20056;-71
2023/12/04 05:50:27;;;;;;;54.33;29.10;;;-0.60;84.80;;;;;;5043632;28;20396;-70
2023/12/04 05:52:52;;;;;;;55.83;29.13;;;-0.60;84.80;;;;;;5044032;28;20045;-70
2023/12/04 05:55:18;;;;;;;54.40;28.53;;;-0.60;84.70;;;;;;5045085;28;20056;-72
2023/12/04 05:57:44;;;;;;;61.03;30.30;;;-0.60;84.70;;;;;;5043871;28;20082;-70
2023/12/04 06:00:13;;;;;;;59.83;30.53;;;-0.60;84.70;;;;;;5044502;28;20048;-75
2023/12/04 06:02:43;;;;;;;54.10;29.37;;;-0.60;84.60;;;;;;5044443;28;20496;-73
2023/12/04 06:05:09;;;;;;;58.93;30.37;;;-0.60;84.50;;;;;;5034085;28;20049;-71
2023/12/04 06:07:36;;;;;;;53.83;29.10;;;-0.60;84.50;;;;;;5045054;28;20246;-71
2023/12/04 06:10:04;;;;;;;54.40;29.30;;;-0.60;84.40;;;;;;5045115;28;20084;-71
2023/12/04 06:12:30;;;;;;;54.60;29.13;;;-0.60;84.30;;;;;;5043805;28;20103;-72
2023/12/04 06:14:56;;;;;;;69.00;59.67;;;-0.60;84.20;;;;;;5034661;28;20521;-71
2023/12/04 06:17:22;;;;;;;53.80;28.17;;;-0.60;84.20;;;;;;5041701;28;20051;-70
2023/12/04 06:19:47;;;;;;;57.07;27.63;;;-0.60;84.20;;;;;;5043187;28;20412;-71
2023/12/04 06:22:13;;;;;;;55.67;27.30;;;-0.60;84.30;;;;;;5044190;28;20122;-70
2023/12/04 06:24:39;;;;;;;49.70;27.50;;;-0.60;84.20;;;;;;5045504;28;20128;-71
2023/12/04 06:27:08;;;;;;;51.43;26.70;;;-0.60;84.20;;;;;;5046583;28;20053;-70
2023/12/04 06:29:35;;;;;;;54.97;27.73;;;-0.60;84.20;;;;;;5046937;28;20037;-70
2023/12/04 06:32:01;;;;;;;51.33;27.63;;;-0.60;84.20;;;;;;5046647;28;20041;-71
2023/12/04 06:34:27;;;;;;;54.37;28.37;;;-0.60;84.10;;;;;;5036876;28;20045;-70
2023/12/04 06:36:54;;;;;;;50.50;27.07;;;-0.60;84.10;;;;;;5041722;28;20460;-71
2023/12/04 06:39:20;;;;;;;48.57;26.13;;;-0.50;84.00;;;;;;5047089;28;20103;-71
2023/12/04 06:41:48;;;;;;;52.17;27.30;;;-0.50;84.00;;;;;;5032800;28;20526;-70
2023/12/04 06:44:14;;;;;;;50.10;26.90;;;-0.60;84.00;;;;;;5026599;28;20517;-70
2023/12/04 06:46:42;;;;;;;58.90;48.93;;;-0.60;84.00;;;;;;5025931;28;20096;-74
2023/12/04 06:49:11;;;;;;;45.30;24.10;;;-0.50;84.00;;;;;;5026810;28;20053;-70
2023/12/04 06:51:37;;;;;;;46.50;24.47;;;-0.50;84.00;;;;;;5025896;28;20132;-70
2023/12/04 06:54:02;;;;;;;49.23;26.53;;;-0.50;83.90;;;;;;5027188;28;20121;-71
2023/12/04 06:56:28;;;;;;;47.43;25.73;;;-0.60;84.00;;;;;;5026521;28;20446;-70
2023/12/04 06:58:54;;;;;;;48.67;25.77;;;-0.60;83.90;;;;;;5027126;28;20150;-71
2023/12/04 07:01:20;;;;;;;46.83;25.57;;;-0.60;83.90;;;;;;5025103;28;20186;-71
2023/12/04 07:03:45;;;;;;;51.17;29.20;;;-0.60;83.70;;;;;;5022934;28;20060;-70
2023/12/04 07:06:11;;;;;;;50.47;29.23;;;-0.50;83.70;;;;;;5034479;28;20041;-73
2023/12/04 07:08:37;;;;;;;49.47;27.80;;;-0.60;83.60;;;;;;5033212;28;20069;-69
2023/12/04 07:11:03;;;;;;;50.40;27.27;;;-0.60;83.50;;;;;;5027148;28;20054;-71
2023/12/04 07:13:28;;;;;;;47.60;26.97;;;-0.60;83.50;;;;;;5025881;28;20472;-71
2023/12/04 07:15:54;;;;;;;46.03;27.57;;;-0.60;83.40;;;;;;5033526;28;20064;-71
2023/12/04 07:18:20;;;;;;;46.23;26.93;;;-0.60;83.40;;;;;;5017415;28;20135;-72
2023/12/04 07:20:46;;;;;;;47.83;27.37;;;-0.60;83.30;;;;;;5035230;28;20044;-71
2023/12/04 07:23:11;;;;;;;55.53;28.07;;;-0.60;83.30;;;;;;5035844;28;20100;-70
2023/12/04 07:25:37;;;;;;;47.20;26.23;;;-0.70;83.30;;;;;;5035374;28;20328;-70
2023/12/04 07:28:03;;;;;;;43.80;26.47;;;-0.60;83.20;;;;;;5034032;28;20068;-72
2023/12/04 07:30:28;;;;;;;41.67;24.37;;;-0.70;83.30;;;;;;5032416;28;20056;-72
2023/12/04 07:32:54;;;;;;;43.77;24.63;;;-0.70;83.20;;;;;;5033937;28;20124;-74
2023/12/04 07:35:20;;;;;;;46.40;25.33;;;-0.70;83.30;;;;;;5035303;28;20036;-73
2023/12/04 07:37:46;;;;;;;41.93;24.77;;;-0.70;83.20;;;;;;5036171;28;20094;-70
2023/12/04 07:40:12;;;;;;;46.67;25.63;;;-0.70;83.20;;;;;;5023538;28;20041;-70
2023/12/04 07:42:38;;;;;;;44.50;24.87;;;-0.70;83.20;;;;;;5023533;28;20425;-73
2023/12/04 07:45:04;;;;;;;41.37;23.70;;;-0.70;83.10;;;;;;5022910;28;20049;-71
2023/12/04 07:47:30;;;;;;;43.03;24.53;;;-0.70;83.10;;;;;;4997895;28;20097;-71
2023/12/04 07:49:56;;;;;;;41.70;25.03;;;-0.70;83.00;;;;;;5019334;28;20129;-70
2023/12/04 07:52:21;;;;;;;40.93;24.03;;;-0.60;83.00;;;;;;5019126;28;20054;-70
2023/12/04 07:54:47;;;;;;;42.83;23.57;;;-0.70;82.90;;;;;;5024326;28;20045;-71
2023/12/04 07:57:12;;;;;;;41.97;24.57;;;-0.60;82.90;;;;;;5025203;28;20041;-71
2023/12/04 07:59:38;;;;;;;50.47;42.03;;;-0.60;82.70;;;;;;5024530;28;20055;-73
2023/12/04 08:02:04;;;;;;;41.80;24.60;;;-0.60;82.70;;;;;;5007431;28;20049;-71
2023/12/04 08:04:29;;;;;;;40.93;24.00;;;-0.60;82.50;;;;;;5007607;28;21280;-71
2023/12/04 08:06:56;;;;;;;43.07;23.27;;;-0.60;82.60;;;;;;5025473;28;20045;-70
2023/12/04 08:09:22;;;;;;;40.83;22.97;;;-0.60;82.50;;;;;;5023266;28;20508;-74
2023/12/04 08:11:47;;;;;;;38.87;23.47;;;-0.60;82.30;;;;;;5018575;28;20353;-71
2023/12/04 08:14:13;;;;;;;40.93;23.57;;;-0.50;82.10;;;;;;5013375;28;20488;-71
2023/12/04 08:16:39;;;;;;;38.70;22.63;;;-0.50;82.00;;;;;;5004651;28;20056;-72
2023/12/04 08:19:04;;;;;;;36.83;21.97;;;-0.50;82.00;;;;;;5005664;28;20408;-72
2023/12/04 08:21:32;;;;;;;37.53;21.27;;;-0.50;82.00;;;;;;5004802;28;20519;-73
2023/12/04 08:23:58;;;;;;;34.80;21.17;;;-0.50;81.90;;;;;;5008599;28;20746;-73
2023/12/04 08:26:25;;;;;;;39.10;21.73;;;-0.50;81.80;;;;;;5010299;28;20045;-70
2023/12/04 08:28:51;;;;;;;33.53;20.53;;;-0.40;81.80;;;;;;5010257;28;20948;-72
2023/12/04 08:31:17;;;;;;;39.73;21.93;;;-0.40;81.70;;;;;;5008737;28;20041;-71
2023/12/04 08:33:43;;;;;;;36.13;20.50;;;-0.40;81.40;;;;;;5009536;28;20708;-72
2023/12/04 08:36:10;;;;;;;35.47;20.90;;;-0.40;81.50;;;;;;5007171;28;20108;-73
2023/12/04 08:38:36;;;;;;;37.03;20.47;;;-0.40;81.30;;;;;;5010820;28;20038;-70
2023/12/04 08:41:03;;;;;;;34.73;21.20;;;-0.40;80.90;;;;;;4994225;28;20044;-72
2023/12/04 08:43:28;;;;;;;33.20;19.17;;;-0.40;81.00;;;;;;5012576;28;20223;-70
2023/12/04 08:45:55;;;;;;;33.43;19.20;;;-0.30;80.70;;;;;;5013261;28;20049;-74
2023/12/04 08:48:20;;;;;;;31.87;19.37;;;-0.30;80.70;;;;;;4995837;28;20471;-72
2023/12/04 08:50:47;;;;;;;30.63;18.47;;;-0.30;80.90;;;;;;5010773;28;20049;-70
2023/12/04 08:53:13;;;;;;;31.27;19.27;;;-0.30;80.80;;;;;;5012356;28;20415;-71
2023/12/04 08:55:38;;;;;;;27.97;17.53;;;-0.30;80.60;;;;;;5010905;28;20123;-71
2023/12/04 08:58:04;;;;;;;31.27;18.27;;;-0.30;80.60;;;;;;5013700;28;20084;-71
2023/12/04 09:00:30;;;;;;;30.40;17.73;;;-0.30;80.60;;;;;;5010037;28;20054;-73
2023/12/04 09:02:56;;;;;;;31.77;18.50;;;-0.20;80.60;;;;;;5012644;28;20057;-73
2023/12/04 09:05:22;;;;;;;28.53;18.10;;;-0.20;80.50;;;;;;5012813;28;20103;-75
2023/12/04 09:07:47;;;;;;;30.53;17.70;;;-0.20;80.50;;;;;;5012119;28;20397;-71
2023/12/04 09:10:13;;;;;;;28.30;17.33;;;-0.20;80.30;;;;;;5013303;28;20046;-71
2023/12/04 09:12:40;;;;;;;26.03;17.60;;;-0.20;80.30;;;;;;5010269;28;20179;-74
2023/12/04 09:15:06;;;;;;;25.47;15.90;;;-0.10;80.00;;;;;;5007757;28;21090;-74
2023/12/04 09:17:32;;;;;;;32.90;18.03;;;-0.10;80.00;;;;;;5008818;28;20300;-70
2023/12/04 09:19:58;;;;;;;29.17;18.13;;;-0.10;80.10;;;;;;5010144;28;21035;-70
2023/12/04 09:22:23;;;;;;;27.97;17.43;;;-0.10;80.10;;;;;;5011057;28;20451;-73
2023/12/04 09:24:49;;;;;;;25.83;16.73;;;-0.10;80.10;;;;;;5008410;28;20065;-75
2023/12/04 09:27:16;;;;;;;25.23;16.67;;;-0.10;80.00;;;;;;5006537;28;20072;-73
2023/12/04 09:29:42;;;;;;;30.90;27.50;;;-0.10;79.70;;;;;;5009657;28;20050;-72
2023/12/04 09:32:09;;;;;;;27.30;17.83;;;-0.10;79.70;;;;;;5008419;28;20057;-74
2023/12/04 09:34:35;;;;;;;25.73;16.60;;;-0.10;79.30;;;;;;5010911;28;20183;-70
2023/12/04 09:37:01;;;;;;;31.07;17.13;;;0.00;79.10;;;;;;5009659;28;20187;-72
2023/12/04 09:39:28;;;;;;;24.30;16.00;;;0.00;79.00;;;;;;5009725;28;20053;-70
2023/12/04 09:41:55;;;;;;;24.60;15.87;;;0.00;79.00;;;;;;5008778;28;20548;-73
2023/12/04 09:44:24;;;;;;;23.63;15.53;;;0.00;79.10;;;;;;5009314;28;20049;-73
2023/12/04 09:46:51;;;;;;;26.17;18.10;;;0.00;79.20;;;;;;5011589;28;20057;-71
2023/12/04 09:49:18;;;;;;;23.63;15.57;;;0.00;79.20;;;;;;5011426;28;20060;-72
2023/12/04 09:51:44;;;;;;;24.47;15.87;;;0.00;79.00;;;;;;5009378;28;20127;-73
2023/12/04 09:54:11;;;;;;;25.93;14.73;;;0.00;79.00;;;;;;5011801;28;20104;-73
2023/12/04 09:56:37;;;;;;;22.47;14.80;;;0.00;78.90;;;;;;5009705;28;20045;-74
2023/12/04 09:59:07;;;;;;;24.40;15.60;;;0.00;78.90;;;;;;5011896;28;20195;-74
2023/12/04 10:01:34;;;;;;;23.73;14.93;;;0.00;79.00;;;;;;5011860;28;20139;-72
2023/12/04 10:04:01;;;;;;;24.67;15.10;;;0.00;78.90;;;;;;5010516;28;20060;-74
2023/12/04 10:06:31;;;;;;;21.73;13.80;;;0.00;78.70;;;;;;5010074;28;20077;-71
2023/12/04 10:08:59;;;;;;;22.63;14.40;;;0.10;78.90;;;;;;5010009;28;20061;-72
2023/12/04 10:11:26;;;;;;;22.83;13.10;;;0.20;79.00;;;;;;5010891;28;20053;-75
2023/12/04 10:13:53;;;;;;;21.90;13.70;;;0.20;79.10;;;;;;5007827;28;20129;-73
2023/12/04 10:16:35;;;;;;;20.87;13.00;;;0.20;79.20;;;;;;5008749;28;20413;-75
2023/12/04 10:19:17;;;;;;;22.10;13.33;;;0.30;79.20;;;;;;5037891;28;20170;-71
2023/12/04 10:21:48;;;;;;;19.87;13.13;;;0.40;79.10;;;;;;5029276;28;20490;-71
2023/12/04 10:24:45;;;;;;;22.53;13.70;;;0.50;78.40;;;;;;5031058;28;20387;-71
2023/12/04 10:27:13;;;;;;;21.93;13.50;;;0.70;78.10;;;;;;5030753;28;20053;-74
2023/12/04 10:29:47;;;;;;;20.70;14.03;;;0.90;77.60;;;;;;5031662;28;20416;-71
2023/12/04 10:32:17;;;;;;;19.27;13.40;;;1.00;77.70;;;;;;5031288;28;20049;-73
2023/12/04 10:34:43;;;;;;;20.57;12.57;;;1.10;77.70;;;;;;5012628;28;20527;-74
2023/12/04 10:37:10;;;;;;;21.03;12.97;;;1.20;77.70;;;;;;5010058;28;20053;-71
2023/12/04 10:39:47;;;;;;;21.13;13.67;;;1.40;77.20;;;;;;5011681;28;20547;-70
2023/12/04 10:42:24;;;;;;;20.33;12.70;;;1.40;77.60;;;;;;5006639;28;20053;-74
2023/12/04 10:44:50;;;;;;;19.20;12.30;;;1.50;76.90;;;;;;5004674;28;20068;-73
2023/12/04 10:47:16;;;;;;;17.03;12.27;;;1.50;76.60;;;;;;5010460;28;20051;-74
2023/12/04 10:49:44;;;;;;;17.50;12.70;;;1.60;76.60;;;;;;5011023;28;20440;-74
2023/12/04 10:52:10;;;;;;;20.17;12.33;;;1.50;76.40;;;;;;5007494;28;20053;-71
2023/12/04 10:54:36;;;;;;;18.67;12.63;;;1.40;76.10;;;;;;5008254;28;20053;-74
2023/12/04 10:57:04;;;;;;;17.93;12.13;;;1.40;75.90;;;;;;5002485;28;20076;-72
2023/12/04 10:59:36;;;;;;;32.47;29.67;;;1.40;76.10;;;;;;5007067;28;20091;-73
2023/12/04 11:02:04;;;;;;;;;;;1.40;75.90;;;;;;5005034;28;20082;-70
2023/12/04 11:04:32;;;;;;;16.37;11.33;;;1.30;74.00;;;;;;5007384;28;19936;-72
2023/12/04 11:07:01;;;;;;;18.93;12.07;;;1.40;75.10;;;;;;5009010;28;20056;-71
2023/12/04 11:09:29;;;;;;;15.73;11.47;;;1.40;75.00;;;;;;5010646;28;20052;-73
2023/12/04 11:12:00;;;;;;;22.77;20.57;;;1.40;75.60;;;;;;5009617;28;20057;-71
2023/12/04 11:14:31;;;;;;;15.77;10.77;;;1.40;76.10;;;;;;5011230;28;20389;-73
2023/12/04 11:17:08;;;;;;;14.45;12.13;;;1.40;75.10;;;;;;5008692;28;20606;-70
2023/12/04 11:20:02;;;;;;;15.20;10.83;;;1.40;74.60;;;;;;5011250;28;20085;-71
2023/12/04 11:22:28;;;;;;;15.63;10.93;;;1.60;74.80;;;;;;4976060;28;20092;-73
2023/12/04 11:24:55;;;;;;;14.53;11.10;;;1.90;74.50;;;;;;4996981;28;20053;-74
2023/12/04 11:27:22;;;;;;;18.77;10.93;;;2.10;73.20;;;;;;5006413;28;20053;-70
2023/12/04 11:29:48;;;;;;;15.20;11.50;;;2.30;73.90;;;;;;5008533;28;20049;-70
2023/12/04 11:32:18;;;;;;;16.30;11.23;;;2.30;73.20;;;;;;5005513;28;20053;-74
2023/12/04 11:34:52;;;;;;;15.67;10.53;;;2.30;72.90;;;;;;5007298;28;20061;-71
2023/12/04 11:37:19;;;;;;;15.27;10.80;;;2.30;72.90;;;;;;5007303;28;20147;-73
2023/12/04 11:39:49;;;;;;;15.23;10.93;;;2.20;73.00;;;;;;5005834;28;20044;-73
2023/12/04 11:42:20;;;;;;;13.43;10.30;;;2.20;72.90;;;;;;5005983;28;20076;-70
2023/12/04 11:44:48;;;;;;;10.90;8.60;;;2.10;73.30;;;;;;5006675;28;21268;-75
2023/12/04 11:47:15;;;;;;;13.07;9.87;;;2.00;72.50;;;;;;5007880;28;20256;-71
2023/12/04 11:49:41;;;;;;;18.37;10.27;;;2.00;73.30;;;;;;5009246;28;20151;-71
2023/12/04 11:52:07;;;;;;;16.10;10.13;;;1.90;73.00;;;;;;5007985;28;20132;-72
2023/12/04 11:54:59;;;;;;;15.27;10.23;;;1.90;73.20;;;;;;5007372;28;20049;-74
2023/12/04 11:57:25;;;;;;;15.67;10.73;;;1.80;72.80;;;;;;5005882;28;20053;-73
2023/12/04 11:59:52;;;;;;;15.07;11.17;;;1.70;73.30;;;;;;5010000;28;20070;-71
2023/12/04 12:02:18;;;;;;;17.17;11.10;;;1.70;73.90;;;;;;5014684;28;20061;-71
2023/12/04 12:04:45;;;;;;;15.43;10.87;;;1.60;74.30;;;;;;5014173;28;20839;-74
2023/12/04 12:07:12;;;;;;;17.90;10.63;;;1.50;73.80;;;;;;5013815;28;20548;-71
2023/12/04 12:09:38;;;;;;;16.30;11.60;;;1.50;74.10;;;;;;5017151;28;20124;-72
2023/12/04 12:12:04;;;;;;;16.63;11.53;;;1.40;74.10;;;;;;5025469;28;20056;-71
2023/12/04 12:14:31;;;;;;;16.40;10.53;;;1.30;74.00;;;;;;5018953;28;20527;-72
2023/12/04 12:16:59;;;;;;;18.10;12.00;;;1.20;74.60;;;;;;5006982;28;20045;-71
2023/12/04 12:19:25;;;;;;;16.03;11.27;;;1.20;75.10;;;;;;5026539;28;20533;-74
2023/12/04 12:21:51;;;;;;;14.67;10.77;;;1.10;74.70;;;;;;5031973;28;20061;-74
2023/12/04 12:24:18;;;;;;;15.70;10.67;;;1.10;75.10;;;;;;5007202;28;20057;-72
2023/12/04 12:26:44;;;;;;;19.00;10.93;;;1.10;75.00;;;;;;5006679;28;20484;-73